Terminal Aerodrome Forecast
Issued by NWS Lake Charles, LA

Current Version | Previous Version | Text Only | Print | Product List | Glossary On
Versions: 1 2 3 4 5 6 7 8 9 10 11 12 13
000
FTUS44 KLCH 232300
TAFLFT
TAF
KLFT 232330Z 2400/2424 VRB06KT P6SM SCT030 BKN060
     FM240100 VRB03KT P6SM SCT050 SCT150
     FM241600 35005KT P6SM VCTS SCT030CB=

USA.gov is the U.S. government's official web portal to all federal, state and local government web resources and services.